Fraser, Michigan
Current Conditions -  °F | °C
As of 11:58 PM on Saturday 25 Oct 2014 (Local Time) from KMTC Reporting Station
Clear Clear  
Wind Chill: 55°   Ceiling: Unl
Heat Index: 55°   Visibility: 10mi
Dew Point: 32°   Wind: 10mph
Humidity: 42%   Direction: 280°W
Pressure: 29.76"   Gusts: NA
Location:  42.54°N, 82.95°W
Report Text: KMTC 260358Z AUTO 28009KT 10SM CLR 13/00 A2976 RMK AO2 SLP081 T01261002
Loading
Personal Weather Stations






























Interactive Weather Map
Tropical Storm Tracking
New forecast layout! Learn more

10-Day Weather Forecast

Advertisements
Track Severe Weather on mobile